Time;durP1;ratioP1;P1;durP2;ratioP2;P2;SDS_P1;SDS_P2;PMS_P1;PMS_P2;Temp;Humidity;BMP_temperature;BMP_pressure;BME280_temperature;BME280_humidity;BME280_pressure;Samples;Min_cycle;Max_cycle;Signal;HPM_P1;HPM_P2
2021/07/05 00:00:00;;;;;;;4.22;3.92;;;34.20;36.70;;;;;;5112715;28;20027;-63
2021/07/05 00:02:27;;;;;;;5.43;3.72;;;34.20;36.80;;;;;;5108588;28;20103;-62
2021/07/05 00:04:53;;;;;;;3.65;3.35;;;34.20;36.80;;;;;;5100411;28;20024;-63
2021/07/05 00:07:20;;;;;;;3.85;3.50;;;34.20;36.80;;;;;;5090082;28;20020;-63
2021/07/05 00:09:46;;;;;;;4.75;4.30;;;34.20;36.80;;;;;;5090306;28;20072;-63
2021/07/05 00:12:13;;;;;;;4.07;3.67;;;34.20;36.90;;;;;;5078419;28;20445;-63
2021/07/05 00:14:39;;;;;;;4.05;3.65;;;34.20;36.80;;;;;;5076092;28;20097;-63
2021/07/05 00:17:05;;;;;;;4.13;3.83;;;34.20;36.90;;;;;;5082755;28;20016;-63
2021/07/05 00:19:31;;;;;;;4.25;3.85;;;34.20;36.90;;;;;;5104273;28;20027;-63
2021/07/05 00:21:58;;;;;;;4.07;3.78;;;34.20;36.90;;;;;;5108872;28;20031;-63
2021/07/05 00:24:24;;;;;;;4.57;4.18;;;34.10;37.10;;;;;;5093703;28;20201;-63
2021/07/05 00:26:50;;;;;;;4.45;4.15;;;34.20;37.00;;;;;;5101306;28;20136;-63
2021/07/05 00:29:16;;;;;;;4.45;4.05;;;34.20;37.00;;;;;;5106950;28;20043;-63
2021/07/05 00:31:42;;;;;;;4.43;4.03;;;34.20;37.00;;;;;;5097272;28;20048;-63
2021/07/05 00:34:08;;;;;;;4.57;4.20;;;34.20;37.10;;;;;;5085637;28;20047;-63
2021/07/05 00:36:34;;;;;;;5.10;4.55;;;34.20;37.10;;;;;;5081564;28;20109;-65
2021/07/05 00:39:01;;;;;;;4.35;3.95;;;34.20;37.00;;;;;;5105885;28;20025;-62
2021/07/05 00:41:29;;;;;;;5.10;4.70;;;34.10;37.00;;;;;;5086610;28;20133;-63
2021/07/05 00:43:57;;;;;;;6.20;5.70;;;34.10;37.00;;;;;;5096074;28;20027;-63
2021/07/05 00:46:24;;;;;;;5.82;5.43;;;34.10;37.00;;;;;;5074938;28;20396;-62
2021/07/05 00:48:50;;;;;;;5.43;4.90;;;34.10;37.00;;;;;;5108888;28;20540;-63
2021/07/05 00:51:16;;;;;;;5.55;5.18;;;34.10;37.00;;;;;;5095660;28;20032;-62
2021/07/05 00:53:47;;;;;;;5.80;5.30;;;34.10;37.00;;;;;;5095874;28;20107;-63
2021/07/05 00:56:14;;;;;;;6.13;5.63;;;34.10;37.00;;;;;;5107153;28;20023;-63
2021/07/05 00:58:40;;;;;;;6.32;5.82;;;34.10;37.10;;;;;;5106920;28;20379;-63
2021/07/05 01:01:06;;;;;;;6.60;6.00;;;34.10;37.10;;;;;;5107850;28;20060;-66
2021/07/05 01:03:33;;;;;;;6.05;5.57;;;34.10;37.10;;;;;;5110359;28;20027;-63
2021/07/05 01:05:59;;;;;;;5.70;5.30;;;34.10;37.10;;;;;;5111250;28;20372;-64
2021/07/05 01:08:26;;;;;;;5.75;5.20;;;34.00;37.10;;;;;;5089195;28;20081;-63
2021/07/05 01:10:52;;;;;;;5.40;5.00;;;34.00;37.10;;;;;;5092767;28;20027;-63
2021/07/05 01:13:17;;;;;;;6.32;5.82;;;34.10;37.20;;;;;;5070598;28;20442;-63
2021/07/05 01:15:43;;;;;;;6.53;5.88;;;34.10;37.20;;;;;;5099765;28;20028;-64
2021/07/05 01:18:10;;;;;;;6.00;5.60;;;34.00;37.20;;;;;;5083134;28;20046;-64
2021/07/05 01:20:38;;;;;;;6.57;5.97;;;34.00;37.20;;;;;;5111528;28;20027;-63
2021/07/05 01:23:08;;;;;;;6.40;5.80;;;34.00;37.20;;;;;;5107164;28;20015;-63
2021/07/05 01:25:35;;;;;;;6.10;5.60;;;34.10;37.90;;;;;;5104249;28;20037;-63
2021/07/05 01:28:01;;;;;;;6.32;5.75;;;34.00;37.20;;;;;;5107126;28;20073;-63
2021/07/05 01:30:28;;;;;;;6.15;5.65;;;34.00;37.30;;;;;;5106360;28;20991;-64
2021/07/05 01:33:04;;;;;;;5.75;5.25;;;34.00;37.30;;;;;;5111244;28;20518;-63
2021/07/05 01:35:31;;;;;;;6.40;5.50;;;34.00;37.30;;;;;;5094687;28;20090;-64
2021/07/05 01:37:58;;;;;;;5.55;5.05;;;34.00;37.30;;;;;;5106876;28;20015;-64
2021/07/05 01:40:24;;;;;;;6.85;6.35;;;34.00;37.10;;;;;;5111229;28;20472;-64
2021/07/05 01:42:57;;;;;;;6.75;6.15;;;34.00;37.30;;;;;;5072704;28;20483;-64
2021/07/05 01:45:30;;;;;;;6.35;5.85;;;34.00;37.30;;;;;;5088083;28;20027;-63
2021/07/05 01:47:57;;;;;;;6.30;5.80;;;33.90;37.30;;;;;;5091075;28;20020;-62
2021/07/05 01:50:24;;;;;;;6.43;5.93;;;34.00;37.40;;;;;;5091791;28;20076;-65
2021/07/05 01:52:51;;;;;;;6.45;5.90;;;33.90;37.30;;;;;;5093534;28;20031;-65
2021/07/05 01:55:22;;;;;;;6.13;5.63;;;33.90;37.40;;;;;;5091749;28;20023;-64
2021/07/05 01:57:48;;;;;;;6.78;6.18;;;33.90;37.40;;;;;;5109609;28;20020;-64
2021/07/05 02:00:17;;;;;;;6.22;5.78;;;33.90;37.40;;;;;;5104814;28;20026;-63
2021/07/05 02:02:45;;;;;;;6.05;5.55;;;33.90;37.50;;;;;;5083246;28;20028;-64
2021/07/05 02:05:14;;;;;;;5.57;5.05;;;34.00;37.60;;;;;;5105360;28;20034;-64
2021/07/05 02:07:40;;;;;;;6.22;5.72;;;33.90;37.50;;;;;;5109250;28;20043;-65
2021/07/05 02:10:13;;;;;;;6.43;5.88;;;34.00;37.60;;;;;;5104119;28;20023;-64
2021/07/05 02:12:40;;;;;;;5.60;5.10;;;33.90;37.50;;;;;;5108515;28;20050;-65
2021/07/05 02:15:12;;;;;;;6.10;5.70;;;33.90;37.60;;;;;;5079714;28;20096;-64
2021/07/05 02:17:38;;;;;;;6.43;5.90;;;33.90;37.60;;;;;;5103224;28;20388;-63
2021/07/05 02:20:16;;;;;;;5.75;5.30;;;33.90;37.60;;;;;;5103771;28;20072;-62
2021/07/05 02:22:43;;;;;;;6.25;5.75;;;33.90;37.60;;;;;;5084677;28;20138;-63
2021/07/05 02:25:13;;;;;;;6.72;6.13;;;33.90;37.60;;;;;;5064220;28;20098;-62
2021/07/05 02:27:41;;;;;;;6.05;5.55;;;33.90;37.70;;;;;;5105445;28;20379;-62
2021/07/05 02:30:12;;;;;;;5.60;5.05;;;33.90;37.60;;;;;;5082722;28;20054;-63
2021/07/05 02:32:41;;;;;;;5.65;5.25;;;33.90;37.70;;;;;;5103142;28;20051;-63
2021/07/05 02:35:09;;;;;;;6.10;5.60;;;33.90;37.50;;;;;;5109545;28;20349;-62
2021/07/05 02:37:36;;;;;;;5.43;4.93;;;33.90;37.60;;;;;;5083427;28;20069;-62
2021/07/05 02:40:06;;;;;;;5.78;5.25;;;33.90;37.60;;;;;;5104454;28;20035;-62
2021/07/05 02:42:32;;;;;;;5.93;5.53;;;33.90;37.70;;;;;;5105275;28;20027;-62
2021/07/05 02:44:58;;;;;;;5.70;5.18;;;33.90;37.70;;;;;;5095254;28;20016;-62
2021/07/05 02:47:24;;;;;;;5.63;5.18;;;33.90;37.80;;;;;;5102081;28;20042;-64
2021/07/05 02:49:50;;;;;;;5.55;5.10;;;33.80;37.70;;;;;;5081577;28;20019;-62
2021/07/05 02:52:16;;;;;;;5.07;4.68;;;33.80;37.80;;;;;;5084829;28;20040;-62
2021/07/05 02:54:42;;;;;;;5.10;4.70;;;33.80;37.80;;;;;;5083200;28;20023;-65
2021/07/05 02:57:08;;;;;;;4.90;4.50;;;33.80;37.80;;;;;;5083817;28;20418;-62
2021/07/05 02:59:34;;;;;;;5.03;4.63;;;33.80;37.80;;;;;;5094760;28;20032;-62
2021/07/05 03:02:00;;;;;;;5.57;5.18;;;33.80;37.80;;;;;;5081404;28;20122;-61
2021/07/05 03:04:26;;;;;;;5.68;5.18;;;33.80;37.90;;;;;;5079709;28;20100;-62
2021/07/05 03:06:52;;;;;;;5.85;5.40;;;33.80;37.90;;;;;;5072086;28;20054;-64
2021/07/05 03:09:18;;;;;;;4.50;4.20;;;33.70;37.90;;;;;;5084458;28;20468;-62
2021/07/05 03:11:44;;;;;;;5.10;4.70;;;33.70;37.70;;;;;;5076719;28;20058;-65
2021/07/05 03:14:10;;;;;;;5.28;4.78;;;33.70;37.80;;;;;;5101514;28;20476;-63
2021/07/05 03:16:36;;;;;;;4.85;4.47;;;33.70;37.80;;;;;;5103418;28;20024;-64
2021/07/05 03:19:02;;;;;;;5.47;5.07;;;33.70;37.80;;;;;;5107843;28;20027;-63
2021/07/05 03:21:28;;;;;;;5.70;5.13;;;33.70;37.90;;;;;;5108376;28;20072;-63
2021/07/05 03:23:55;;;;;;;5.35;4.95;;;33.70;37.90;;;;;;5107080;28;20027;-63
2021/07/05 03:26:21;;;;;;;4.80;4.50;;;33.70;37.90;;;;;;5100954;28;20024;-62
2021/07/05 03:28:47;;;;;;;4.80;4.50;;;33.70;37.90;;;;;;5090659;28;20028;-62
2021/07/05 03:31:13;;;;;;;5.30;4.90;;;33.70;38.00;;;;;;5085284;28;20072;-62
2021/07/05 03:33:39;;;;;;;5.30;4.90;;;33.70;38.00;;;;;;5084633;28;20036;-62
2021/07/05 03:36:05;;;;;;;5.28;4.80;;;33.70;38.00;;;;;;5088760;28;20382;-63
2021/07/05 03:38:31;;;;;;;4.82;4.43;;;33.70;38.10;;;;;;5098581;28;20031;-63
2021/07/05 03:40:57;;;;;;;4.85;4.45;;;33.70;38.00;;;;;;5083154;28;20325;-63
2021/07/05 03:43:23;;;;;;;4.60;4.30;;;33.60;38.10;;;;;;5090657;28;20052;-62
2021/07/05 03:45:49;;;;;;;4.90;4.50;;;33.70;38.10;;;;;;5105404;28;20116;-63
2021/07/05 03:48:16;;;;;;;4.95;4.55;;;33.60;38.10;;;;;;5104612;28;20016;-65
2021/07/05 03:50:42;;;;;;;5.00;4.60;;;33.60;38.10;;;;;;5105025;28;20103;-61
2021/07/05 03:53:09;;;;;;;4.88;4.47;;;33.60;38.10;;;;;;5089083;28;20035;-61
2021/07/05 03:55:37;;;;;;;4.30;4.00;;;33.60;38.20;;;;;;5080222;28;20078;-61
2021/07/05 03:58:03;;;;;;;4.82;4.43;;;33.60;38.10;;;;;;5103410;28;20077;-61
2021/07/05 04:00:33;;;;;;;5.05;4.65;;;33.60;38.10;;;;;;5093457;28;20479;-62
2021/07/05 04:02:59;;;;;;;;;;;33.60;38.20;;;;;;5104055;28;20036;-61
2021/07/05 04:05:27;;;;;;;4.40;4.00;;;33.60;38.10;;;;;;5095134;28;19908;-62
2021/07/05 04:07:53;;;;;;;5.05;4.70;;;33.70;38.00;;;;;;5070228;28;20026;-62
2021/07/05 04:10:21;;;;;;;4.32;4.03;;;33.70;38.10;;;;;;5084428;28;20077;-63
2021/07/05 04:12:47;;;;;;;5.57;4.05;;;33.60;38.20;;;;;;5079888;28;20040;-63
2021/07/05 04:15:14;;;;;;;4.75;4.35;;;33.60;38.20;;;;;;5102623;28;20031;-62
2021/07/05 04:17:40;;;;;;;4.53;4.15;;;33.60;38.20;;;;;;5097823;28;20456;-62
2021/07/05 04:20:09;;;;;;;4.78;4.30;;;33.60;38.20;;;;;;5078755;28;20108;-62
2021/07/05 04:22:36;;;;;;;4.30;4.00;;;33.60;38.30;;;;;;5087613;28;20032;-62
2021/07/05 04:25:03;;;;;;;4.38;4.07;;;33.60;38.30;;;;;;5086750;28;20027;-62
2021/07/05 04:27:29;;;;;;;4.40;4.10;;;33.60;38.30;;;;;;5106462;28;20076;-62
2021/07/05 04:29:54;;;;;;;4.15;3.75;;;33.50;38.30;;;;;;5090070;28;20114;-62
2021/07/05 04:32:21;;;;;;;4.03;3.72;;;33.60;38.30;;;;;;5098959;28;20086;-63
2021/07/05 04:34:48;;;;;;;4.40;4.00;;;33.60;38.40;;;;;;5103378;28;20436;-62
2021/07/05 04:37:14;;;;;;;4.70;4.30;;;33.60;38.50;;;;;;5085128;28;20056;-65
2021/07/05 04:39:40;;;;;;;4.00;3.70;;;33.60;38.50;;;;;;5085051;28;20059;-62
2021/07/05 04:42:06;;;;;;;4.10;3.80;;;33.60;38.40;;;;;;5094594;28;20028;-62
2021/07/05 04:44:32;;;;;;;4.10;3.80;;;33.60;38.40;;;;;;5070426;28;20042;-62
2021/07/05 04:46:58;;;;;;;3.78;3.47;;;33.60;38.40;;;;;;5102461;28;20490;-62
2021/07/05 04:49:26;;;;;;;4.20;3.90;;;33.50;38.40;;;;;;5085109;28;20032;-62
2021/07/05 04:51:52;;;;;;;4.28;3.80;;;33.50;38.40;;;;;;5103767;28;20476;-64
2021/07/05 04:54:18;;;;;;;4.35;4.05;;;33.50;38.60;;;;;;5089619;28;20031;-62
2021/07/05 04:56:44;;;;;;;3.80;3.50;;;33.50;38.50;;;;;;5105271;28;20019;-62
2021/07/05 04:59:14;;;;;;;3.97;3.67;;;33.50;38.50;;;;;;5102432;28;20028;-61
2021/07/05 05:01:43;;;;;;;;;;;33.50;38.50;;;;;;5085383;28;20020;-62
2021/07/05 05:04:09;;;;;;;4.30;3.90;;;33.50;38.50;;;;;;5107201;28;20205;-61
2021/07/05 05:06:35;;;;;;;4.13;3.50;;;33.60;38.40;;;;;;5094544;28;20452;-60
2021/07/05 05:09:01;;;;;;;4.38;3.10;;;33.60;38.30;;;;;;5080435;28;20073;-62
2021/07/05 05:11:28;;;;;;;3.75;3.40;;;33.50;38.20;;;;;;5083655;28;20019;-61
2021/07/05 05:13:54;;;;;;;4.15;3.80;;;33.50;38.40;;;;;;5106192;28;20039;-63
2021/07/05 05:16:20;;;;;;;4.03;3.67;;;33.50;38.50;;;;;;5086811;28;20057;-64
2021/07/05 05:18:46;;;;;;;3.35;3.15;;;33.50;38.50;;;;;;5105429;28;20456;-61
2021/07/05 05:21:12;;;;;;;4.57;2.80;;;33.50;38.50;;;;;;5075455;28;20322;-63
2021/07/05 05:23:39;;;;;;;11.50;8.20;;;33.50;36.90;;;;;;5110889;28;20031;-63
2021/07/05 05:26:07;;;;;;;5.55;4.88;;;33.40;35.90;;;;;;5086552;28;20016;-63
2021/07/05 05:28:33;;;;;;;5.57;2.75;;;33.40;35.00;;;;;;5101527;28;20095;-63
2021/07/05 05:30:59;;;;;;;5.22;2.50;;;33.40;34.50;;;;;;5106261;28;20020;-63
2021/07/05 05:33:25;;;;;;;3.67;2.30;;;33.30;34.10;;;;;;5102263;28;20071;-64
2021/07/05 05:35:51;;;;;;;7.97;2.65;;;33.30;34.30;;;;;;5092400;28;20377;-64
2021/07/05 05:38:17;;;;;;;7.00;1.90;;;33.30;33.70;;;;;;5070978;28;20045;-65
2021/07/05 05:40:43;;;;;;;10.18;1.65;;;33.20;33.60;;;;;;5088184;28;20374;-64
2021/07/05 05:43:09;;;;;;;6.35;1.80;;;33.20;33.60;;;;;;5077903;28;20088;-64
2021/07/05 05:45:38;;;;;;;6.55;2.20;;;33.20;34.20;;;;;;5106064;28;20028;-64
2021/07/05 05:48:06;;;;;;;3.07;1.30;;;33.10;33.20;;;;;;5108345;28;20019;-64
2021/07/05 05:50:33;;;;;;;7.32;1.95;;;33.10;33.20;;;;;;5102809;28;20024;-64
2021/07/05 05:52:59;;;;;;;5.50;1.52;;;33.10;33.30;;;;;;5110385;28;20074;-65
2021/07/05 05:55:25;;;;;;;5.78;1.70;;;33.10;33.30;;;;;;5101797;28;20375;-64
2021/07/05 05:57:51;;;;;;;8.60;2.15;;;33.00;33.40;;;;;;5088220;28;20035;-63
2021/07/05 06:00:23;;;;;;;5.20;1.77;;;33.00;33.40;;;;;;5088682;28;20333;-63
2021/07/05 06:02:50;;;;;;;3.70;1.58;;;33.00;33.10;;;;;;5089225;28;20157;-64
2021/07/05 06:05:16;;;;;;;6.47;2.05;;;33.00;33.30;;;;;;5099480;28;20046;-64
2021/07/05 06:07:47;;;;;;;9.48;2.15;;;33.00;33.30;;;;;;5081750;28;20035;-64
2021/07/05 06:10:14;;;;;;;7.22;2.33;;;33.00;33.50;;;;;;5099945;28;20043;-64
2021/07/05 06:12:41;;;;;;;7.03;1.73;;;33.00;33.50;;;;;;5088679;28;20036;-63
2021/07/05 06:15:08;;;;;;;7.13;2.53;;;32.90;33.50;;;;;;5109714;28;20471;-63
2021/07/05 06:17:35;;;;;;;17.25;13.98;;;33.00;33.60;;;;;;5090352;28;20034;-63
2021/07/05 06:20:02;;;;;;;9.90;5.53;;;32.90;33.50;;;;;;5073340;28;20055;-63
2021/07/05 06:22:29;;;;;;;3.72;2.78;;;33.00;33.60;;;;;;5105870;28;20031;-64
2021/07/05 06:24:57;;;;;;;2.47;2.00;;;32.90;33.50;;;;;;5089642;28;20161;-64
2021/07/05 06:27:23;;;;;;;7.88;2.80;;;33.00;33.60;;;;;;5071870;28;20034;-63
2021/07/05 06:29:49;;;;;;;7.72;3.13;;;32.90;33.60;;;;;;5075292;28;20098;-63
2021/07/05 06:32:16;;;;;;;4.10;2.50;;;32.90;33.70;;;;;;5089446;28;20051;-64
2021/07/05 06:34:42;;;;;;;6.63;3.60;;;32.90;33.70;;;;;;5093217;28;20035;-63
2021/07/05 06:37:09;;;;;;;12.55;7.22;;;32.90;33.60;;;;;;5091981;28;20099;-63
2021/07/05 06:39:35;;;;;;;11.07;5.85;;;32.90;33.70;;;;;;5090899;28;20027;-63
2021/07/05 06:42:01;;;;;;;10.73;8.75;;;32.90;33.70;;;;;;5090748;28;20441;-63
2021/07/05 06:44:27;;;;;;;23.48;21.27;;;32.90;33.80;;;;;;5090142;28;20073;-63
2021/07/05 06:46:53;;;;;;;25.02;22.42;;;32.90;33.80;;;;;;5087315;28;20481;-63
2021/07/05 06:49:20;;;;;;;22.45;18.02;;;32.90;33.80;;;;;;5070110;28;20057;-63
2021/07/05 06:51:47;;;;;;;10.07;4.55;;;32.90;34.00;;;;;;5106171;28;20371;-63
2021/07/05 06:54:14;;;;;;;8.02;2.95;;;33.00;35.10;;;;;;5109047;28;20471;-64
2021/07/05 06:56:40;;;;;;;10.60;5.13;;;32.90;35.50;;;;;;5099064;28;20410;-64
2021/07/05 06:59:06;;;;;;;13.60;7.32;;;32.90;35.50;;;;;;5087305;28;20368;-64
2021/07/05 07:01:36;;;;;;;9.30;3.78;;;32.90;35.60;;;;;;5107993;28;20022;-64
2021/07/05 07:04:02;;;;;;;10.63;4.45;;;33.10;36.40;;;;;;5061703;28;20032;-63
2021/07/05 07:06:29;;;;;;;7.53;3.08;;;33.00;38.80;;;;;;5083139;28;20024;-64
2021/07/05 07:08:55;;;;;;;8.00;3.78;;;32.90;38.60;;;;;;5106218;28;20016;-63
2021/07/05 07:11:21;;;;;;;10.55;3.88;;;32.90;39.90;;;;;;5107257;28;20039;-64
2021/07/05 07:13:47;;;;;;;16.33;4.65;;;32.70;40.70;;;;;;5086813;28;20052;-64
2021/07/05 07:16:16;;;;;;;13.73;3.67;;;32.30;41.00;;;;;;5107252;28;20114;-64
2021/07/05 07:18:57;;;;;;;11.68;4.25;;;32.10;41.80;;;;;;5091656;28;20020;-63
2021/07/05 07:21:24;;;;;;;10.95;4.60;;;32.10;42.90;;;;;;5106744;28;20024;-63
2021/07/05 07:23:50;;;;;;;14.57;5.32;;;31.90;43.60;;;;;;5088805;28;20114;-63
2021/07/05 07:26:17;;;;;;;13.35;4.50;;;31.60;44.30;;;;;;5108901;28;20031;-64
2021/07/05 07:28:43;;;;;;;11.63;4.57;;;31.40;44.60;;;;;;5072427;28;20031;-67
2021/07/05 07:31:09;;;;;;;14.77;5.20;;;31.20;44.90;;;;;;5099633;28;20028;-68
2021/07/05 07:33:35;;;;;;;11.57;4.57;;;31.00;44.80;;;;;;5090077;28;20054;-68
2021/07/05 07:36:02;;;;;;;16.15;4.47;;;30.90;45.20;;;;;;5105437;28;20032;-62
2021/07/05 07:38:34;;;;;;;19.70;5.10;;;30.70;45.40;;;;;;5083532;28;20054;-63
2021/07/05 07:41:00;;;;;;;14.10;5.78;;;30.60;46.20;;;;;;5098372;28;20049;-61
2021/07/05 07:43:26;;;;;;;14.32;4.80;;;30.50;46.30;;;;;;5072458;28;20061;-61
2021/07/05 07:45:52;;;;;;;15.73;4.40;;;30.40;46.50;;;;;;5089923;28;20020;-61
2021/07/05 07:48:18;;;;;;;11.35;4.10;;;30.40;46.80;;;;;;5100919;28;20490;-60
2021/07/05 07:50:44;;;;;;;15.55;4.63;;;30.30;46.90;;;;;;5106907;28;20028;-60
2021/07/05 07:53:10;;;;;;;12.80;4.35;;;30.20;47.30;;;;;;5083298;28;20035;-61
2021/07/05 07:55:36;;;;;;;12.48;3.83;;;30.10;47.20;;;;;;5083310;28;20043;-61
2021/07/05 07:58:02;;;;;;;12.90;4.28;;;30.10;47.50;;;;;;5105140;28;20016;-62
2021/07/05 08:00:31;;;;;;;13.07;4.30;;;30.00;48.40;;;;;;5097994;28;20032;-64
2021/07/05 08:02:57;;;;;;;14.82;4.05;;;30.00;47.70;;;;;;5108986;28;20034;-61
2021/07/05 08:05:23;;;;;;;15.18;4.90;;;29.90;48.00;;;;;;5103369;28;20029;-61
2021/07/05 08:07:50;;;;;;;10.20;3.65;;;29.90;48.30;;;;;;5066115;28;20925;-63
2021/07/05 08:10:17;;;;;;;15.57;3.67;;;29.90;48.10;;;;;;5104393;28;20038;-61
2021/07/05 08:12:44;;;;;;;9.98;4.55;;;29.90;48.30;;;;;;5080948;28;20036;-60
2021/07/05 08:15:12;;;;;;;14.82;4.50;;;29.90;48.50;;;;;;5100726;28;20025;-61
2021/07/05 08:17:41;;;;;;;14.82;5.05;;;29.90;48.40;;;;;;5093452;28;20390;-61
2021/07/05 08:20:08;;;;;;;20.52;6.05;;;29.90;48.40;;;;;;5085236;28;20471;-61
2021/07/05 08:22:35;;;;;;;16.65;4.45;;;29.90;48.40;;;;;;5102774;28;20030;-62
2021/07/05 08:25:03;;;;;;;14.75;4.45;;;29.90;48.60;;;;;;5086955;28;20028;-62
2021/07/05 08:27:31;;;;;;;15.30;4.65;;;29.90;48.70;;;;;;5104835;28;20111;-61
2021/07/05 08:29:57;;;;;;;15.38;4.28;;;29.90;48.60;;;;;;5104713;28;20504;-61
2021/07/05 08:32:23;;;;;;;13.93;4.20;;;29.90;48.60;;;;;;5088685;28;20130;-62
2021/07/05 08:34:49;;;;;;;12.15;4.20;;;29.90;48.70;;;;;;5088510;28;20398;-61
2021/07/05 08:37:15;;;;;;;15.23;4.47;;;29.90;48.60;;;;;;5103503;28;20081;-62
2021/07/05 08:39:41;;;;;;;16.00;4.82;;;30.00;49.10;;;;;;5081048;28;20381;-62
2021/07/05 08:42:07;;;;;;;12.63;4.30;;;30.00;49.10;;;;;;5074079;28;20020;-61
2021/07/05 08:44:34;;;;;;;10.68;4.10;;;30.00;48.90;;;;;;5111211;28;20041;-60
2021/07/05 08:47:03;;;;;;;15.13;4.60;;;30.00;48.90;;;;;;5102794;28;20066;-60
2021/07/05 08:49:29;;;;;;;12.30;4.43;;;30.00;49.10;;;;;;5104562;28;20494;-61
2021/07/05 08:51:56;;;;;;;11.48;4.40;;;30.00;49.10;;;;;;5105497;28;20503;-62
2021/07/05 08:54:22;;;;;;;15.60;4.07;;;30.00;49.30;;;;;;5106803;28;20035;-61
2021/07/05 08:56:48;;;;;;;14.45;4.22;;;30.00;49.10;;;;;;5084325;28;20490;-61
2021/07/05 08:59:18;;;;;;;15.40;4.22;;;30.00;49.30;;;;;;5086114;28;20065;-60
2021/07/05 09:01:44;;;;;;;49.33;41.03;;;30.00;48.10;;;;;;5102620;28;20027;-50
2021/07/05 09:04:14;;;;;;;16.83;6.32;;;30.00;49.40;;;;;;5106857;28;20068;-50
2021/07/05 09:07:07;;;;;;;21.08;5.78;;;29.90;49.60;;;;;;5104556;28;20020;-50
2021/07/05 09:09:36;;;;;;;15.73;4.40;;;29.90;49.30;;;;;;5106189;28;20056;-53
2021/07/05 09:12:05;;;;;;;11.98;4.35;;;29.90;49.50;;;;;;5108216;28;20032;-50
2021/07/05 09:14:32;;;;;;;13.63;4.80;;;29.90;49.70;;;;;;5105962;28;20055;-50
2021/07/05 09:16:58;;;;;;;11.00;3.80;;;29.90;49.70;;;;;;5103250;28;20027;-50
2021/07/05 09:19:31;;;;;;;12.00;4.50;;;29.90;49.60;;;;;;5097136;28;20042;-50
2021/07/05 09:22:00;;;;;;;13.70;4.57;;;29.90;49.90;;;;;;5104745;28;20085;-52
2021/07/05 09:24:39;;;;;;;13.98;4.28;;;29.90;49.90;;;;;;5098374;28;20373;-51
2021/07/05 09:27:11;;;;;;;13.00;4.30;;;29.90;49.80;;;;;;5107779;28;20016;-50
2021/07/05 09:29:42;;;;;;;13.10;4.43;;;30.00;50.40;;;;;;5105722;28;20729;-51
2021/07/05 09:32:13;;;;;;;10.25;4.07;;;30.00;49.90;;;;;;5104483;28;20470;-52
2021/07/05 09:34:43;;;;;;;12.13;3.90;;;29.90;49.80;;;;;;5097294;28;20506;-50
2021/07/05 09:37:22;;;;;;;16.45;5.05;;;29.90;49.80;;;;;;5081870;28;20034;-50
2021/07/05 09:40:03;;;;;;;14.73;4.50;;;29.90;50.00;;;;;;5103607;28;20016;-51
2021/07/05 09:42:32;;;;;;;15.43;3.83;;;29.80;49.70;;;;;;5110449;28;20020;-50
2021/07/05 09:44:59;;;;;;;12.15;4.55;;;29.80;49.80;;;;;;5098595;28;20024;-50
2021/07/05 09:47:26;;;;;;;15.23;4.75;;;29.80;50.10;;;;;;5101715;28;20024;-50
2021/07/05 09:49:54;;;;;;;15.93;4.10;;;29.80;50.20;;;;;;5101087;28;20021;-50
2021/07/05 09:52:26;;;;;;;14.55;4.78;;;29.80;50.00;;;;;;5098377;28;20039;-49
2021/07/05 09:54:54;;;;;;;12.00;3.83;;;29.80;50.00;;;;;;5105628;28;20019;-51
2021/07/05 09:57:28;;;;;;;13.02;4.07;;;29.90;49.80;;;;;;5105082;28;20023;-51
2021/07/05 10:00:17;;;;;;;15.20;3.88;;;30.00;49.80;;;;;;5110327;28;20432;-50
2021/07/05 10:03:14;;;;;;;11.57;3.92;;;30.00;49.80;;;;;;5105246;28;20433;-51
2021/07/05 10:05:46;;;;;;;18.35;7.65;;;30.10;49.50;;;;;;5077453;28;20611;-50
2021/07/05 10:08:15;;;;;;;20.83;13.18;;;30.20;49.60;;;;;;5070053;28;20040;-62
2021/07/05 10:10:43;;;;;;;29.80;24.95;;;30.30;49.70;;;;;;5069049;28;20040;-56
2021/07/05 10:13:12;;;;;;;16.33;11.07;;;30.30;49.30;;;;;;5051804;28;20060;-58
2021/07/05 10:15:39;;;;;;;19.92;5.28;;;30.40;49.20;;;;;;5058510;28;20090;-57
2021/07/05 10:18:05;;;;;;;12.57;4.00;;;30.50;48.80;;;;;;5068228;28;20020;-57
2021/07/05 10:20:31;;;;;;;12.02;4.03;;;30.50;48.70;;;;;;5066829;28;20032;-57
2021/07/05 10:23:00;;;;;;;14.50;4.68;;;30.60;49.00;;;;;;5062202;28;20481;-59
2021/07/05 10:25:29;;;;;;;11.97;3.70;;;30.60;49.10;;;;;;5064427;28;20090;-56
2021/07/05 10:27:56;;;;;;;11.82;4.25;;;30.70;49.20;;;;;;5063748;28;20028;-56
2021/07/05 10:30:23;;;;;;;12.57;3.95;;;30.70;48.90;;;;;;5064639;28;20025;-57
2021/07/05 10:32:50;;;;;;;12.98;4.32;;;30.80;48.60;;;;;;5067663;28;20460;-59
2021/07/05 10:35:21;;;;;;;11.73;4.53;;;30.80;49.00;;;;;;5067955;28;20044;-57
2021/07/05 10:38:51;;;;;;;17.98;5.45;;;30.80;48.90;;;;;;5068002;28;20034;-56
2021/07/05 10:41:18;;;;;;;;;;;30.70;48.80;;;;;;5126245;22;20116;-56
2021/07/05 10:44:04;;;;;;;17.70;4.95;;;30.70;48.30;;;;;;5033853;28;20423;-56
2021/07/05 10:46:53;;;;;;;15.75;4.97;;;30.80;48.30;;;;;;5053179;28;20053;-56
2021/07/05 10:49:31;;;;;;;10.90;4.68;;;30.70;48.40;;;;;;5043038;28;20382;-56
2021/07/05 10:52:01;;;;;;;13.85;5.07;;;30.70;48.40;;;;;;5054846;28;20123;-58
2021/07/05 10:54:46;;;;;;;;;;;30.70;48.60;;;;;;5049106;28;20486;-55
2021/07/05 10:57:14;;;;;;;17.40;5.43;;;30.70;48.10;;;;;;5027414;28;20218;-55
2021/07/05 10:59:43;;;;;;;10.65;4.22;;;30.70;48.20;;;;;;5048631;28;20021;-57
2021/07/05 11:02:34;;;;;;;14.82;3.90;;;30.70;48.40;;;;;;5055177;28;20040;-57
2021/07/05 11:05:02;;;;;;;11.00;4.47;;;30.60;48.30;;;;;;5027405;28;20072;-56
2021/07/05 11:07:45;;;;;;;9.82;3.63;;;30.70;48.30;;;;;;5017972;28;20037;-56
2021/07/05 11:10:17;;;;;;;13.75;3.90;;;30.70;48.80;;;;;;5069141;28;20115;-56
2021/07/05 11:12:59;;;;;;;11.05;3.63;;;30.70;48.20;;;;;;5062252;28;20064;-56
2021/07/05 11:15:49;;;;;;;9.00;3.80;;;30.80;48.00;;;;;;5039061;28;20551;-56
2021/07/05 11:18:37;;;;;;;11.37;3.53;;;30.80;47.70;;;;;;5059303;28;20029;-55
2021/07/05 11:21:23;;;;;;;13.25;3.80;;;30.90;47.90;;;;;;5069564;28;20356;-58
2021/07/05 11:23:56;;;;;;;13.00;3.35;;;31.00;47.30;;;;;;5015210;28;20037;-56
2021/07/05 11:26:30;;;;;;;10.48;3.78;;;31.00;47.30;;;;;;5045178;28;20111;-56
2021/07/05 11:29:18;;;;;;;10.35;3.28;;;31.20;47.70;;;;;;5046847;28;20117;-55
2021/07/05 11:32:02;;;;;;;11.18;4.00;;;31.20;47.50;;;;;;5047961;28;20033;-56
2021/07/05 11:34:33;;;;;;;11.95;4.13;;;31.30;46.80;;;;;;5048046;28;20025;-56
2021/07/05 11:37:12;;;;;;;8.35;3.30;;;31.30;46.20;;;;;;5030705;28;20063;-56
2021/07/05 11:39:50;;;;;;;14.88;9.38;;;31.40;46.40;;;;;;5048856;28;20101;-58
2021/07/05 11:42:35;;;;;;;7.78;3.47;;;31.50;46.30;;;;;;5029734;28;20428;-56
2021/07/05 11:45:02;;;;;;;8.35;3.55;;;31.50;45.90;;;;;;5046059;28;20029;-55
2021/07/05 11:47:41;;;;;;;9.90;3.42;;;31.60;46.20;;;;;;5049721;28;20428;-56
2021/07/05 11:50:24;;;;;;;9.07;3.63;;;31.70;45.40;;;;;;5048295;28;20024;-58
2021/07/05 11:52:59;;;;;;;13.38;3.88;;;31.80;45.80;;;;;;5034779;28;20047;-59
2021/07/05 11:55:28;;;;;;;10.57;4.28;;;31.80;45.60;;;;;;5051782;28;20108;-57
2021/07/05 11:57:59;;;;;;;7.78;3.38;;;31.90;45.50;;;;;;5053033;28;20371;-55
2021/07/05 12:00:28;;;;;;;19.08;5.15;;;32.00;45.50;;;;;;5053416;28;20029;-55
2021/07/05 12:03:14;;;;;;;15.25;4.85;;;32.00;45.50;;;;;;5054581;28;20028;-55
2021/07/05 12:05:56;;;;;;;14.85;4.18;;;32.00;45.50;;;;;;5052877;28;20159;-60
2021/07/05 12:08:22;;;;;;;19.98;4.40;;;32.10;45.40;;;;;;5054490;28;20025;-56
2021/07/05 12:10:48;;;;;;;10.93;4.88;;;32.10;45.40;;;;;;5054648;28;20434;-57
2021/07/05 12:13:18;;;;;;;17.02;4.60;;;32.10;45.30;;;;;;5053951;28;20111;-56
2021/07/05 12:15:56;;;;;;;13.23;4.90;;;32.20;45.30;;;;;;5053111;28;20060;-57
2021/07/05 12:18:22;;;;;;;10.23;4.32;;;32.20;45.40;;;;;;5034972;28;20083;-55
2021/07/05 12:21:07;;;;;;;8.93;3.78;;;32.30;45.40;;;;;;5049363;28;20020;-55
2021/07/05 12:23:38;;;;;;;9.80;4.50;;;32.30;45.40;;;;;;5054134;28;20116;-54
2021/07/05 12:26:23;;;;;;;11.23;4.07;;;32.40;45.30;;;;;;5052172;28;20503;-55
2021/07/05 12:29:19;;;;;;;11.63;3.83;;;32.40;45.30;;;;;;5035995;28;20055;-55
2021/07/05 12:31:56;;;;;;;11.48;3.63;;;32.40;45.30;;;;;;5048073;28;20037;-55
2021/07/05 12:34:41;;;;;;;13.85;4.03;;;32.50;45.20;;;;;;5050683;28;20033;-55
2021/07/05 12:37:13;;;;;;;9.52;3.90;;;32.60;45.20;;;;;;5039364;28;20049;-55
2021/07/05 12:39:47;;;;;;;7.43;3.75;;;32.60;45.10;;;;;;5049326;28;20021;-56
2021/07/05 12:42:23;;;;;;;13.38;4.43;;;32.60;45.00;;;;;;5053321;28;20047;-57
2021/07/05 12:44:50;;;;;;;8.65;3.65;;;32.70;45.00;;;;;;5053464;28;20352;-55
2021/07/05 12:47:16;;;;;;;7.70;3.63;;;32.70;45.00;;;;;;5053859;28;20033;-55
2021/07/05 12:49:44;;;;;;;8.05;3.80;;;32.70;44.90;;;;;;5036350;28;20106;-59
2021/07/05 12:52:11;;;;;;;9.05;3.72;;;32.80;44.90;;;;;;5036253;28;20029;-54